sensor_id;sensor_type;location;lat;lon;timestamp;P1;durP1;ratioP1;P2;durP2;ratioP2
24873;SDS011;12945;42.648;23.370;2023-08-20T00:00:02;10.82;;;6.00;;
24873;SDS011;12945;42.648;23.370;2023-08-20T00:02:29;15.68;;;6.60;;
24873;SDS011;12945;42.648;23.370;2023-08-20T00:04:57;10.35;;;6.72;;
24873;SDS011;12945;42.648;23.370;2023-08-20T00:07:22;11.00;;;6.60;;
24873;SDS011;12945;42.648;23.370;2023-08-20T00:09:48;12.73;;;7.03;;
24873;SDS011;12945;42.648;23.370;2023-08-20T00:12:13;11.02;;;6.43;;
24873;SDS011;12945;42.648;23.370;2023-08-20T00:14:51;10.27;;;6.80;;
24873;SDS011;12945;42.648;23.370;2023-08-20T00:17:16;10.38;;;7.25;;
24873;SDS011;12945;42.648;23.370;2023-08-20T00:19:42;11.63;;;7.25;;
24873;SDS011;12945;42.648;23.370;2023-08-20T00:22:07;10.45;;;7.13;;
24873;SDS011;12945;42.648;23.370;2023-08-20T00:24:32;13.52;;;7.55;;
24873;SDS011;12945;42.648;23.370;2023-08-20T00:26:57;9.95;;;7.25;;
24873;SDS011;12945;42.648;23.370;2023-08-20T00:29:23;12.50;;;7.47;;
24873;SDS011;12945;42.648;23.370;2023-08-20T00:31:48;12.05;;;7.90;;
24873;SDS011;12945;42.648;23.370;2023-08-20T00:34:13;11.15;;;7.63;;
24873;SDS011;12945;42.648;23.370;2023-08-20T00:36:38;10.38;;;6.97;;
24873;SDS011;12945;42.648;23.370;2023-08-20T00:39:04;9.88;;;7.05;;
24873;SDS011;12945;42.648;23.370;2023-08-20T00:41:29;11.45;;;7.05;;
24873;SDS011;12945;42.648;23.370;2023-08-20T00:43:55;13.50;;;7.63;;
24873;SDS011;12945;42.648;23.370;2023-08-20T00:46:20;10.25;;;7.15;;
24873;SDS011;12945;42.648;23.370;2023-08-20T00:48:45;12.38;;;7.63;;
24873;SDS011;12945;42.648;23.370;2023-08-20T00:51:10;10.68;;;7.47;;
24873;SDS011;12945;42.648;23.370;2023-08-20T00:53:36;12.25;;;7.65;;
24873;SDS011;12945;42.648;23.370;2023-08-20T00:56:01;11.13;;;7.50;;
24873;SDS011;12945;42.648;23.370;2023-08-20T00:58:27;11.15;;;8.00;;
24873;SDS011;12945;42.648;23.370;2023-08-20T01:00:52;12.38;;;7.55;;
24873;SDS011;12945;42.648;23.370;2023-08-20T01:03:17;17.77;;;7.85;;
24873;SDS011;12945;42.648;23.370;2023-08-20T01:05:46;11.88;;;7.63;;
24873;SDS011;12945;42.648;23.370;2023-08-20T01:08:18;12.85;;;7.65;;
24873;SDS011;12945;42.648;23.370;2023-08-20T01:10:56;12.85;;;7.55;;
24873;SDS011;12945;42.648;23.370;2023-08-20T01:13:22;9.35;;;7.50;;
24873;SDS011;12945;42.648;23.370;2023-08-20T01:15:48;9.00;;;7.20;;
24873;SDS011;12945;42.648;23.370;2023-08-20T01:18:13;13.73;;;7.90;;
24873;SDS011;12945;42.648;23.370;2023-08-20T01:20:39;13.40;;;7.97;;
24873;SDS011;12945;42.648;23.370;2023-08-20T01:23:24;11.45;;;7.53;;
24873;SDS011;12945;42.648;23.370;2023-08-20T01:26:15;12.48;;;7.28;;
24873;SDS011;12945;42.648;23.370;2023-08-20T01:28:44;11.15;;;7.50;;
24873;SDS011;12945;42.648;23.370;2023-08-20T01:31:10;11.00;;;7.65;;
24873;SDS011;12945;42.648;23.370;2023-08-20T01:33:35;12.80;;;7.90;;
24873;SDS011;12945;42.648;23.370;2023-08-20T01:36:01;11.35;;;7.75;;
24873;SDS011;12945;42.648;23.370;2023-08-20T01:38:26;17.52;;;7.82;;
24873;SDS011;12945;42.648;23.370;2023-08-20T01:40:52;11.63;;;7.68;;
24873;SDS011;12945;42.648;23.370;2023-08-20T01:43:17;13.80;;;8.00;;
24873;SDS011;12945;42.648;23.370;2023-08-20T01:45:43;10.48;;;7.75;;
24873;SDS011;12945;42.648;23.370;2023-08-20T01:48:08;13.77;;;8.07;;
24873;SDS011;12945;42.648;23.370;2023-08-20T01:50:34;14.65;;;7.78;;
24873;SDS011;12945;42.648;23.370;2023-08-20T01:53:00;12.60;;;7.93;;
24873;SDS011;12945;42.648;23.370;2023-08-20T01:55:25;14.10;;;8.77;;
24873;SDS011;12945;42.648;23.370;2023-08-20T01:57:50;12.20;;;8.18;;
24873;SDS011;12945;42.648;23.370;2023-08-20T02:00:15;10.73;;;8.18;;
24873;SDS011;12945;42.648;23.370;2023-08-20T02:02:41;14.23;;;8.43;;
24873;SDS011;12945;42.648;23.370;2023-08-20T02:05:06;12.07;;;8.48;;
24873;SDS011;12945;42.648;23.370;2023-08-20T02:07:31;15.50;;;8.98;;
24873;SDS011;12945;42.648;23.370;2023-08-20T02:09:57;11.85;;;8.68;;
24873;SDS011;12945;42.648;23.370;2023-08-20T02:12:22;13.43;;;8.45;;
24873;SDS011;12945;42.648;23.370;2023-08-20T02:14:47;11.30;;;7.93;;
24873;SDS011;12945;42.648;23.370;2023-08-20T02:17:13;13.00;;;8.70;;
24873;SDS011;12945;42.648;23.370;2023-08-20T02:19:39;14.45;;;8.40;;
24873;SDS011;12945;42.648;23.370;2023-08-20T02:22:04;13.25;;;8.35;;
24873;SDS011;12945;42.648;23.370;2023-08-20T02:24:30;12.32;;;8.60;;
24873;SDS011;12945;42.648;23.370;2023-08-20T02:26:55;12.98;;;9.13;;
24873;SDS011;12945;42.648;23.370;2023-08-20T02:29:20;14.93;;;8.65;;
24873;SDS011;12945;42.648;23.370;2023-08-20T02:31:46;11.40;;;8.82;;
24873;SDS011;12945;42.648;23.370;2023-08-20T02:34:11;12.38;;;8.85;;
24873;SDS011;12945;42.648;23.370;2023-08-20T02:36:37;16.23;;;9.55;;
24873;SDS011;12945;42.648;23.370;2023-08-20T02:39:02;11.93;;;8.48;;
24873;SDS011;12945;42.648;23.370;2023-08-20T02:41:29;11.93;;;8.43;;
24873;SDS011;12945;42.648;23.370;2023-08-20T02:43:54;12.55;;;8.52;;
24873;SDS011;12945;42.648;23.370;2023-08-20T02:46:20;12.05;;;9.00;;
24873;SDS011;12945;42.648;23.370;2023-08-20T02:48:45;13.07;;;9.18;;
24873;SDS011;12945;42.648;23.370;2023-08-20T02:51:10;16.30;;;8.75;;
24873;SDS011;12945;42.648;23.370;2023-08-20T02:53:35;14.40;;;8.40;;
24873;SDS011;12945;42.648;23.370;2023-08-20T02:56:01;11.07;;;8.25;;
24873;SDS011;12945;42.648;23.370;2023-08-20T02:58:26;12.85;;;9.15;;
24873;SDS011;12945;42.648;23.370;2023-08-20T03:00:51;13.65;;;8.85;;
24873;SDS011;12945;42.648;23.370;2023-08-20T03:03:16;15.15;;;8.65;;
24873;SDS011;12945;42.648;23.370;2023-08-20T03:05:42;11.02;;;8.80;;
24873;SDS011;12945;42.648;23.370;2023-08-20T03:08:07;13.60;;;8.73;;
24873;SDS011;12945;42.648;23.370;2023-08-20T03:10:33;11.25;;;8.52;;
24873;SDS011;12945;42.648;23.370;2023-08-20T03:12:59;12.95;;;9.18;;
24873;SDS011;12945;42.648;23.370;2023-08-20T03:15:25;12.60;;;8.77;;
24873;SDS011;12945;42.648;23.370;2023-08-20T03:17:51;10.50;;;8.50;;
24873;SDS011;12945;42.648;23.370;2023-08-20T03:20:16;12.18;;;8.90;;
24873;SDS011;12945;42.648;23.370;2023-08-20T03:22:41;16.10;;;9.07;;
24873;SDS011;12945;42.648;23.370;2023-08-20T03:25:07;14.32;;;8.15;;
24873;SDS011;12945;42.648;23.370;2023-08-20T03:27:32;10.13;;;8.52;;
24873;SDS011;12945;42.648;23.370;2023-08-20T03:29:58;12.48;;;8.20;;
24873;SDS011;12945;42.648;23.370;2023-08-20T03:32:23;16.30;;;8.40;;
24873;SDS011;12945;42.648;23.370;2023-08-20T03:34:48;11.50;;;8.25;;
24873;SDS011;12945;42.648;23.370;2023-08-20T03:37:14;12.80;;;8.38;;
24873;SDS011;12945;42.648;23.370;2023-08-20T03:39:39;12.95;;;8.48;;
24873;SDS011;12945;42.648;23.370;2023-08-20T03:42:04;13.30;;;8.32;;
24873;SDS011;12945;42.648;23.370;2023-08-20T03:44:30;14.25;;;8.27;;
24873;SDS011;12945;42.648;23.370;2023-08-20T03:46:56;13.68;;;8.57;;
24873;SDS011;12945;42.648;23.370;2023-08-20T03:49:21;11.55;;;8.13;;
24873;SDS011;12945;42.648;23.370;2023-08-20T03:51:47;12.05;;;8.73;;
24873;SDS011;12945;42.648;23.370;2023-08-20T03:54:12;15.95;;;8.80;;
24873;SDS011;12945;42.648;23.370;2023-08-20T03:56:37;16.48;;;8.98;;
24873;SDS011;12945;42.648;23.370;2023-08-20T03:59:03;13.38;;;9.35;;
24873;SDS011;12945;42.648;23.370;2023-08-20T04:01:29;17.48;;;8.20;;
24873;SDS011;12945;42.648;23.370;2023-08-20T04:03:54;9.55;;;8.38;;
24873;SDS011;12945;42.648;23.370;2023-08-20T04:06:19;12.88;;;8.60;;
24873;SDS011;12945;42.648;23.370;2023-08-20T04:08:45;10.80;;;8.30;;
24873;SDS011;12945;42.648;23.370;2023-08-20T04:11:10;20.65;;;9.40;;
24873;SDS011;12945;42.648;23.370;2023-08-20T04:13:35;13.15;;;8.80;;
24873;SDS011;12945;42.648;23.370;2023-08-20T04:16:00;16.95;;;8.52;;
24873;SDS011;12945;42.648;23.370;2023-08-20T04:18:26;13.63;;;8.48;;
24873;SDS011;12945;42.648;23.370;2023-08-20T04:20:52;16.67;;;9.20;;
24873;SDS011;12945;42.648;23.370;2023-08-20T04:23:17;11.00;;;8.68;;
24873;SDS011;12945;42.648;23.370;2023-08-20T04:25:43;14.07;;;8.48;;
24873;SDS011;12945;42.648;23.370;2023-08-20T04:28:09;12.02;;;8.75;;
24873;SDS011;12945;42.648;23.370;2023-08-20T04:30:35;13.82;;;8.30;;
24873;SDS011;12945;42.648;23.370;2023-08-20T04:33:00;12.82;;;8.68;;
24873;SDS011;12945;42.648;23.370;2023-08-20T04:35:25;13.27;;;8.40;;
24873;SDS011;12945;42.648;23.370;2023-08-20T04:37:51;14.75;;;8.38;;
24873;SDS011;12945;42.648;23.370;2023-08-20T04:40:16;13.77;;;8.27;;
24873;SDS011;12945;42.648;23.370;2023-08-20T04:42:41;15.32;;;7.65;;
24873;SDS011;12945;42.648;23.370;2023-08-20T04:45:07;9.73;;;7.63;;
24873;SDS011;12945;42.648;23.370;2023-08-20T04:47:32;10.50;;;7.60;;
24873;SDS011;12945;42.648;23.370;2023-08-20T04:49:58;9.73;;;7.45;;
24873;SDS011;12945;42.648;23.370;2023-08-20T04:52:23;10.80;;;7.68;;
24873;SDS011;12945;42.648;23.370;2023-08-20T04:54:49;11.18;;;7.40;;
24873;SDS011;12945;42.648;23.370;2023-08-20T04:57:14;13.52;;;7.63;;
24873;SDS011;12945;42.648;23.370;2023-08-20T04:59:41;8.93;;;7.00;;
24873;SDS011;12945;42.648;23.370;2023-08-20T05:02:10;13.23;;;7.65;;
24873;SDS011;12945;42.648;23.370;2023-08-20T05:04:35;8.07;;;7.22;;
24873;SDS011;12945;42.648;23.370;2023-08-20T05:07:00;9.70;;;7.97;;
24873;SDS011;12945;42.648;23.370;2023-08-20T05:09:25;11.07;;;7.07;;
24873;SDS011;12945;42.648;23.370;2023-08-20T05:11:51;11.18;;;7.13;;
24873;SDS011;12945;42.648;23.370;2023-08-20T05:14:16;11.55;;;7.47;;
24873;SDS011;12945;42.648;23.370;2023-08-20T05:16:41;12.52;;;8.10;;
24873;SDS011;12945;42.648;23.370;2023-08-20T05:19:07;9.32;;;7.75;;
24873;SDS011;12945;42.648;23.370;2023-08-20T05:21:32;12.05;;;7.75;;
24873;SDS011;12945;42.648;23.370;2023-08-20T05:23:57;9.18;;;7.57;;
24873;SDS011;12945;42.648;23.370;2023-08-20T05:26:22;11.43;;;8.05;;
24873;SDS011;12945;42.648;23.370;2023-08-20T05:28:48;15.10;;;8.35;;
24873;SDS011;12945;42.648;23.370;2023-08-20T05:31:13;12.93;;;7.95;;
24873;SDS011;12945;42.648;23.370;2023-08-20T05:33:38;11.85;;;8.30;;
24873;SDS011;12945;42.648;23.370;2023-08-20T05:36:04;12.70;;;8.20;;
24873;SDS011;12945;42.648;23.370;2023-08-20T05:38:29;15.93;;;8.75;;
24873;SDS011;12945;42.648;23.370;2023-08-20T05:40:54;22.58;;;9.13;;
24873;SDS011;12945;42.648;23.370;2023-08-20T05:43:20;16.40;;;8.57;;
24873;SDS011;12945;42.648;23.370;2023-08-20T05:45:45;15.27;;;9.10;;
24873;SDS011;12945;42.648;23.370;2023-08-20T05:48:10;11.82;;;9.38;;
24873;SDS011;12945;42.648;23.370;2023-08-20T05:50:35;20.48;;;11.45;;
24873;SDS011;12945;42.648;23.370;2023-08-20T05:53:00;17.50;;;9.57;;
24873;SDS011;12945;42.648;23.370;2023-08-20T05:55:28;13.20;;;8.85;;
24873;SDS011;12945;42.648;23.370;2023-08-20T05:57:53;15.00;;;8.90;;
24873;SDS011;12945;42.648;23.370;2023-08-20T06:00:19;17.27;;;9.35;;
24873;SDS011;12945;42.648;23.370;2023-08-20T06:02:45;12.60;;;8.15;;
24873;SDS011;12945;42.648;23.370;2023-08-20T06:05:10;14.30;;;9.63;;
24873;SDS011;12945;42.648;23.370;2023-08-20T06:07:35;14.43;;;8.45;;
24873;SDS011;12945;42.648;23.370;2023-08-20T06:10:01;15.52;;;8.18;;
24873;SDS011;12945;42.648;23.370;2023-08-20T06:12:26;17.98;;;8.13;;
24873;SDS011;12945;42.648;23.370;2023-08-20T06:14:51;11.75;;;7.57;;
24873;SDS011;12945;42.648;23.370;2023-08-20T06:17:17;12.90;;;7.30;;
24873;SDS011;12945;42.648;23.370;2023-08-20T06:19:42;12.55;;;6.97;;
24873;SDS011;12945;42.648;23.370;2023-08-20T06:22:07;10.13;;;6.70;;
24873;SDS011;12945;42.648;23.370;2023-08-20T06:24:33;13.15;;;6.50;;
24873;SDS011;12945;42.648;23.370;2023-08-20T06:26:58;11.82;;;7.03;;
24873;SDS011;12945;42.648;23.370;2023-08-20T06:29:23;10.82;;;7.43;;
24873;SDS011;12945;42.648;23.370;2023-08-20T06:31:49;13.82;;;7.15;;
24873;SDS011;12945;42.648;23.370;2023-08-20T06:34:15;9.93;;;7.00;;
24873;SDS011;12945;42.648;23.370;2023-08-20T06:36:40;12.52;;;7.15;;
24873;SDS011;12945;42.648;23.370;2023-08-20T06:39:05;12.48;;;7.38;;
24873;SDS011;12945;42.648;23.370;2023-08-20T06:41:31;9.48;;;6.72;;
24873;SDS011;12945;42.648;23.370;2023-08-20T06:43:56;10.93;;;6.55;;
24873;SDS011;12945;42.648;23.370;2023-08-20T06:46:21;14.63;;;7.03;;
24873;SDS011;12945;42.648;23.370;2023-08-20T06:48:47;18.98;;;6.95;;
24873;SDS011;12945;42.648;23.370;2023-08-20T06:51:12;13.93;;;7.10;;
24873;SDS011;12945;42.648;23.370;2023-08-20T06:53:38;12.40;;;6.57;;
24873;SDS011;12945;42.648;23.370;2023-08-20T06:56:03;18.65;;;7.15;;
24873;SDS011;12945;42.648;23.370;2023-08-20T06:58:29;13.27;;;6.60;;
24873;SDS011;12945;42.648;23.370;2023-08-20T07:00:54;10.52;;;6.80;;
24873;SDS011;12945;42.648;23.370;2023-08-20T07:03:19;16.83;;;6.30;;
24873;SDS011;12945;42.648;23.370;2023-08-20T07:05:45;8.95;;;6.35;;
24873;SDS011;12945;42.648;23.370;2023-08-20T07:08:10;8.63;;;6.22;;
24873;SDS011;12945;42.648;23.370;2023-08-20T07:10:35;12.80;;;6.47;;
24873;SDS011;12945;42.648;23.370;2023-08-20T07:13:00;12.37;;;6.33;;
24873;SDS011;12945;42.648;23.370;2023-08-20T07:15:26;8.63;;;5.87;;
24873;SDS011;12945;42.648;23.370;2023-08-20T07:17:51;14.23;;;6.20;;
24873;SDS011;12945;42.648;23.370;2023-08-20T07:20:16;16.73;;;6.00;;
24873;SDS011;12945;42.648;23.370;2023-08-20T07:22:42;6.88;;;5.72;;
24873;SDS011;12945;42.648;23.370;2023-08-20T07:25:07;9.52;;;5.35;;
24873;SDS011;12945;42.648;23.370;2023-08-20T07:27:33;7.20;;;5.78;;
24873;SDS011;12945;42.648;23.370;2023-08-20T07:29:58;11.52;;;5.60;;
24873;SDS011;12945;42.648;23.370;2023-08-20T07:32:23;9.77;;;5.40;;
24873;SDS011;12945;42.648;23.370;2023-08-20T07:34:49;7.93;;;5.70;;
24873;SDS011;12945;42.648;23.370;2023-08-20T07:37:14;7.68;;;5.38;;
24873;SDS011;12945;42.648;23.370;2023-08-20T07:39:39;8.43;;;5.60;;
24873;SDS011;12945;42.648;23.370;2023-08-20T07:42:05;8.90;;;5.72;;
24873;SDS011;12945;42.648;23.370;2023-08-20T07:44:31;10.98;;;5.65;;
24873;SDS011;12945;42.648;23.370;2023-08-20T07:46:56;11.55;;;6.32;;
24873;SDS011;12945;42.648;23.370;2023-08-20T07:49:21;12.10;;;5.55;;
24873;SDS011;12945;42.648;23.370;2023-08-20T07:51:47;8.63;;;5.53;;
24873;SDS011;12945;42.648;23.370;2023-08-20T07:54:13;8.15;;;5.70;;
24873;SDS011;12945;42.648;23.370;2023-08-20T07:56:38;11.43;;;6.25;;
24873;SDS011;12945;42.648;23.370;2023-08-20T07:59:04;9.77;;;5.75;;
24873;SDS011;12945;42.648;23.370;2023-08-20T08:01:29;7.83;;;4.80;;
24873;SDS011;12945;42.648;23.370;2023-08-20T08:03:54;11.38;;;4.85;;
24873;SDS011;12945;42.648;23.370;2023-08-20T08:06:20;7.18;;;5.10;;
24873;SDS011;12945;42.648;23.370;2023-08-20T08:08:48;5.95;;;5.03;;
24873;SDS011;12945;42.648;23.370;2023-08-20T08:11:13;6.55;;;4.55;;
24873;SDS011;12945;42.648;23.370;2023-08-20T08:13:38;8.50;;;4.78;;
24873;SDS011;12945;42.648;23.370;2023-08-20T08:16:03;7.88;;;4.68;;
24873;SDS011;12945;42.648;23.370;2023-08-20T08:18:29;8.68;;;4.63;;
24873;SDS011;12945;42.648;23.370;2023-08-20T08:20:54;8.37;;;4.53;;
24873;SDS011;12945;42.648;23.370;2023-08-20T08:23:19;6.50;;;4.80;;
24873;SDS011;12945;42.648;23.370;2023-08-20T08:25:46;9.10;;;4.68;;
24873;SDS011;12945;42.648;23.370;2023-08-20T08:28:12;8.48;;;4.78;;
24873;SDS011;12945;42.648;23.370;2023-08-20T08:30:37;7.93;;;4.22;;
24873;SDS011;12945;42.648;23.370;2023-08-20T08:33:03;6.40;;;4.32;;
24873;SDS011;12945;42.648;23.370;2023-08-20T08:35:28;7.75;;;4.10;;
24873;SDS011;12945;42.648;23.370;2023-08-20T08:37:54;10.50;;;4.28;;
24873;SDS011;12945;42.648;23.370;2023-08-20T08:40:19;6.45;;;4.13;;
24873;SDS011;12945;42.648;23.370;2023-08-20T08:42:47;6.82;;;4.10;;
24873;SDS011;12945;42.648;23.370;2023-08-20T08:45:12;10.25;;;4.10;;
24873;SDS011;12945;42.648;23.370;2023-08-20T08:47:39;5.18;;;3.95;;
24873;SDS011;12945;42.648;23.370;2023-08-20T08:50:04;6.45;;;4.15;;
24873;SDS011;12945;42.648;23.370;2023-08-20T08:52:30;4.65;;;3.30;;
24873;SDS011;12945;42.648;23.370;2023-08-20T08:54:55;7.13;;;3.80;;
24873;SDS011;12945;42.648;23.370;2023-08-20T08:57:20;4.57;;;3.57;;
24873;SDS011;12945;42.648;23.370;2023-08-20T08:59:46;4.95;;;3.70;;
24873;SDS011;12945;42.648;23.370;2023-08-20T09:02:12;3.90;;;3.35;;
24873;SDS011;12945;42.648;23.370;2023-08-20T09:04:40;5.47;;;3.67;;
24873;SDS011;12945;42.648;23.370;2023-08-20T09:07:06;4.88;;;3.90;;
24873;SDS011;12945;42.648;23.370;2023-08-20T09:09:36;5.72;;;3.72;;
24873;SDS011;12945;42.648;23.370;2023-08-20T09:12:02;9.98;;;3.92;;
24873;SDS011;12945;42.648;23.370;2023-08-20T09:14:37;8.15;;;4.00;;
24873;SDS011;12945;42.648;23.370;2023-08-20T09:17:02;6.13;;;3.67;;
24873;SDS011;12945;42.648;23.370;2023-08-20T09:19:28;7.53;;;3.40;;
24873;SDS011;12945;42.648;23.370;2023-08-20T09:21:53;6.13;;;3.40;;
24873;SDS011;12945;42.648;23.370;2023-08-20T09:24:33;4.78;;;3.38;;
24873;SDS011;12945;42.648;23.370;2023-08-20T09:27:01;4.20;;;3.33;;
24873;SDS011;12945;42.648;23.370;2023-08-20T09:29:27;5.22;;;3.50;;
24873;SDS011;12945;42.648;23.370;2023-08-20T09:31:59;6.28;;;3.40;;
24873;SDS011;12945;42.648;23.370;2023-08-20T09:34:25;5.85;;;3.60;;
24873;SDS011;12945;42.648;23.370;2023-08-20T09:36:51;4.03;;;3.08;;
24873;SDS011;12945;42.648;23.370;2023-08-20T09:39:16;5.60;;;3.00;;
24873;SDS011;12945;42.648;23.370;2023-08-20T09:41:42;5.63;;;3.25;;
24873;SDS011;12945;42.648;23.370;2023-08-20T09:44:08;7.97;;;3.30;;
24873;SDS011;12945;42.648;23.370;2023-08-20T09:46:33;4.32;;;3.25;;
24873;SDS011;12945;42.648;23.370;2023-08-20T09:48:59;6.97;;;3.25;;
24873;SDS011;12945;42.648;23.370;2023-08-20T09:51:25;5.78;;;3.30;;
24873;SDS011;12945;42.648;23.370;2023-08-20T09:53:55;4.57;;;2.80;;
24873;SDS011;12945;42.648;23.370;2023-08-20T09:56:25;5.30;;;3.00;;
24873;SDS011;12945;42.648;23.370;2023-08-20T09:58:52;4.80;;;2.90;;
24873;SDS011;12945;42.648;23.370;2023-08-20T10:01:18;5.75;;;3.22;;
24873;SDS011;12945;42.648;23.370;2023-08-20T10:03:44;3.13;;;2.70;;
24873;SDS011;12945;42.648;23.370;2023-08-20T10:06:10;4.88;;;2.85;;
24873;SDS011;12945;42.648;23.370;2023-08-20T10:08:36;5.38;;;2.92;;
24873;SDS011;12945;42.648;23.370;2023-08-20T10:11:02;8.57;;;3.00;;
24873;SDS011;12945;42.648;23.370;2023-08-20T10:13:27;4.47;;;3.30;;
24873;SDS011;12945;42.648;23.370;2023-08-20T10:15:52;5.22;;;3.17;;
24873;SDS011;12945;42.648;23.370;2023-08-20T10:18:20;5.07;;;3.15;;
24873;SDS011;12945;42.648;23.370;2023-08-20T10:20:45;5.38;;;3.08;;
24873;SDS011;12945;42.648;23.370;2023-08-20T10:23:11;4.38;;;3.10;;
24873;SDS011;12945;42.648;23.370;2023-08-20T10:25:41;4.15;;;2.90;;
24873;SDS011;12945;42.648;23.370;2023-08-20T10:28:11;4.65;;;3.53;;
24873;SDS011;12945;42.648;23.370;2023-08-20T10:30:36;4.85;;;3.15;;
24873;SDS011;12945;42.648;23.370;2023-08-20T10:33:02;5.95;;;2.75;;
24873;SDS011;12945;42.648;23.370;2023-08-20T10:35:49;3.65;;;3.22;;
24873;SDS011;12945;42.648;23.370;2023-08-20T10:38:15;4.90;;;3.40;;
24873;SDS011;12945;42.648;23.370;2023-08-20T10:40:55;5.78;;;3.13;;
24873;SDS011;12945;42.648;23.370;2023-08-20T10:43:26;5.75;;;3.50;;
24873;SDS011;12945;42.648;23.370;2023-08-20T10:48:36;4.57;;;3.03;;
24873;SDS011;12945;42.648;23.370;2023-08-20T10:51:09;6.75;;;3.42;;
24873;SDS011;12945;42.648;23.370;2023-08-20T10:53:34;5.78;;;3.50;;
24873;SDS011;12945;42.648;23.370;2023-08-20T10:56:07;7.33;;;3.30;;
24873;SDS011;12945;42.648;23.370;2023-08-20T10:58:32;7.22;;;3.28;;
24873;SDS011;12945;42.648;23.370;2023-08-20T11:03:40;4.55;;;3.70;;
24873;SDS011;12945;42.648;23.370;2023-08-20T11:06:05;3.60;;;3.28;;
24873;SDS011;12945;42.648;23.370;2023-08-20T11:08:31;11.10;;;3.30;;
24873;SDS011;12945;42.648;23.370;2023-08-20T11:10:56;5.05;;;3.40;;
24873;SDS011;12945;42.648;23.370;2023-08-20T11:13:22;9.52;;;3.75;;
24873;SDS011;12945;42.648;23.370;2023-08-20T11:15:47;4.75;;;3.08;;
24873;SDS011;12945;42.648;23.370;2023-08-20T11:18:13;5.55;;;3.00;;
24873;SDS011;12945;42.648;23.370;2023-08-20T11:20:38;5.07;;;3.13;;
24873;SDS011;12945;42.648;23.370;2023-08-20T11:23:05;3.50;;;3.20;;
24873;SDS011;12945;42.648;23.370;2023-08-20T11:25:30;4.30;;;3.20;;
24873;SDS011;12945;42.648;23.370;2023-08-20T11:27:55;4.50;;;3.30;;
24873;SDS011;12945;42.648;23.370;2023-08-20T11:30:21;5.32;;;3.30;;
24873;SDS011;12945;42.648;23.370;2023-08-20T11:32:46;5.33;;;3.20;;
24873;SDS011;12945;42.648;23.370;2023-08-20T11:35:13;6.22;;;3.30;;
24873;SDS011;12945;42.648;23.370;2023-08-20T11:37:39;4.05;;;3.47;;
24873;SDS011;12945;42.648;23.370;2023-08-20T11:40:07;7.82;;;3.35;;
24873;SDS011;12945;42.648;23.370;2023-08-20T11:42:32;6.50;;;3.40;;
24873;SDS011;12945;42.648;23.370;2023-08-20T11:44:57;5.38;;;3.10;;
24873;SDS011;12945;42.648;23.370;2023-08-20T11:47:23;5.70;;;3.57;;
24873;SDS011;12945;42.648;23.370;2023-08-20T11:49:56;6.07;;;3.20;;
24873;SDS011;12945;42.648;23.370;2023-08-20T11:52:26;5.35;;;3.38;;
24873;SDS011;12945;42.648;23.370;2023-08-20T11:54:51;6.50;;;3.27;;
24873;SDS011;12945;42.648;23.370;2023-08-20T11:57:17;6.57;;;3.10;;
24873;SDS011;12945;42.648;23.370;2023-08-20T11:59:43;4.78;;;3.50;;
24873;SDS011;12945;42.648;23.370;2023-08-20T12:02:08;5.53;;;3.40;;
24873;SDS011;12945;42.648;23.370;2023-08-20T12:04:34;4.73;;;3.40;;
24873;SDS011;12945;42.648;23.370;2023-08-20T12:09:30;3.20;;;2.90;;
24873;SDS011;12945;42.648;23.370;2023-08-20T12:11:56;3.97;;;3.53;;
24873;SDS011;12945;42.648;23.370;2023-08-20T12:14:23;6.35;;;3.13;;
24873;SDS011;12945;42.648;23.370;2023-08-20T12:16:49;5.07;;;3.45;;
24873;SDS011;12945;42.648;23.370;2023-08-20T12:19:16;5.78;;;3.22;;
24873;SDS011;12945;42.648;23.370;2023-08-20T12:21:41;4.18;;;3.17;;
24873;SDS011;12945;42.648;23.370;2023-08-20T12:24:08;7.10;;;2.92;;
24873;SDS011;12945;42.648;23.370;2023-08-20T12:26:34;6.57;;;3.05;;
24873;SDS011;12945;42.648;23.370;2023-08-20T12:29:00;3.72;;;3.13;;
24873;SDS011;12945;42.648;23.370;2023-08-20T12:31:25;7.80;;;3.38;;
24873;SDS011;12945;42.648;23.370;2023-08-20T12:33:50;5.28;;;3.35;;
24873;SDS011;12945;42.648;23.370;2023-08-20T12:36:16;6.30;;;3.27;;
24873;SDS011;12945;42.648;23.370;2023-08-20T12:38:41;8.07;;;3.70;;
24873;SDS011;12945;42.648;23.370;2023-08-20T12:41:07;6.15;;;3.17;;
24873;SDS011;12945;42.648;23.370;2023-08-20T12:43:32;4.50;;;3.20;;
24873;SDS011;12945;42.648;23.370;2023-08-20T12:45:57;7.05;;;3.20;;
24873;SDS011;12945;42.648;23.370;2023-08-20T12:48:23;6.30;;;3.50;;
24873;SDS011;12945;42.648;23.370;2023-08-20T12:50:48;4.80;;;3.13;;
24873;SDS011;12945;42.648;23.370;2023-08-20T12:53:13;3.78;;;3.20;;
24873;SDS011;12945;42.648;23.370;2023-08-20T12:55:39;5.85;;;3.35;;
24873;SDS011;12945;42.648;23.370;2023-08-20T12:58:04;11.30;;;3.60;;
24873;SDS011;12945;42.648;23.370;2023-08-20T13:00:30;9.37;;;3.83;;
24873;SDS011;12945;42.648;23.370;2023-08-20T13:02:55;11.10;;;3.38;;
24873;SDS011;12945;42.648;23.370;2023-08-20T13:05:24;5.25;;;3.35;;
24873;SDS011;12945;42.648;23.370;2023-08-20T13:07:50;6.70;;;3.33;;
24873;SDS011;12945;42.648;23.370;2023-08-20T13:10:15;7.20;;;3.30;;
24873;SDS011;12945;42.648;23.370;2023-08-20T13:12:41;6.07;;;3.30;;
24873;SDS011;12945;42.648;23.370;2023-08-20T13:15:07;6.50;;;3.25;;
24873;SDS011;12945;42.648;23.370;2023-08-20T13:17:32;6.63;;;3.25;;
24873;SDS011;12945;42.648;23.370;2023-08-20T13:19:57;5.05;;;3.50;;
24873;SDS011;12945;42.648;23.370;2023-08-20T13:22:23;6.17;;;2.93;;
24873;SDS011;12945;42.648;23.370;2023-08-20T13:24:48;7.43;;;3.00;;
24873;SDS011;12945;42.648;23.370;2023-08-20T13:27:13;6.07;;;3.58;;
24873;SDS011;12945;42.648;23.370;2023-08-20T13:29:40;4.35;;;3.08;;
24873;SDS011;12945;42.648;23.370;2023-08-20T13:32:05;4.75;;;3.03;;
24873;SDS011;12945;42.648;23.370;2023-08-20T13:34:31;4.13;;;2.90;;
24873;SDS011;12945;42.648;23.370;2023-08-20T13:36:56;4.05;;;3.08;;
24873;SDS011;12945;42.648;23.370;2023-08-20T13:39:22;3.67;;;3.27;;
24873;SDS011;12945;42.648;23.370;2023-08-20T13:41:48;4.00;;;3.03;;
24873;SDS011;12945;42.648;23.370;2023-08-20T13:44:14;6.80;;;3.30;;
24873;SDS011;12945;42.648;23.370;2023-08-20T13:46:39;6.13;;;3.30;;
24873;SDS011;12945;42.648;23.370;2023-08-20T13:49:04;4.80;;;3.17;;
24873;SDS011;12945;42.648;23.370;2023-08-20T13:51:30;5.50;;;3.43;;
24873;SDS011;12945;42.648;23.370;2023-08-20T13:53:56;8.23;;;3.42;;
24873;SDS011;12945;42.648;23.370;2023-08-20T13:56:21;5.53;;;3.25;;
24873;SDS011;12945;42.648;23.370;2023-08-20T13:58:47;5.40;;;3.38;;
24873;SDS011;12945;42.648;23.370;2023-08-20T14:01:12;6.97;;;3.23;;
24873;SDS011;12945;42.648;23.370;2023-08-20T14:03:38;4.95;;;3.42;;
24873;SDS011;12945;42.648;23.370;2023-08-20T14:06:03;5.20;;;3.15;;
24873;SDS011;12945;42.648;23.370;2023-08-20T14:08:29;6.95;;;3.08;;
24873;SDS011;12945;42.648;23.370;2023-08-20T14:10:54;6.07;;;3.10;;
24873;SDS011;12945;42.648;23.370;2023-08-20T14:13:19;4.80;;;3.10;;
24873;SDS011;12945;42.648;23.370;2023-08-20T14:15:44;6.73;;;3.37;;
24873;SDS011;12945;42.648;23.370;2023-08-20T14:18:10;5.27;;;3.30;;
24873;SDS011;12945;42.648;23.370;2023-08-20T14:20:35;4.93;;;3.00;;
24873;SDS011;12945;42.648;23.370;2023-08-20T14:23:00;4.07;;;2.83;;
24873;SDS011;12945;42.648;23.370;2023-08-20T14:25:26;4.40;;;2.80;;
24873;SDS011;12945;42.648;23.370;2023-08-20T14:27:51;7.20;;;3.33;;